Terminal Aerodrome Forecast
Issued by NWS

Home | Current Version | Previous Version | Text Only | Print | Product List | Glossary On
Versions: 1 2 3 4 5 6 7 8 9 10 11 12 13 14 15 16 17 18 19 20 21 22 23 24
000
FTAK31 PANC 122324
TAFAHO
TAF
PAHO 122324Z 1300/1324 05007KT P6SM VCSH BKN050
     FM130600 08008KT P6SM -SHRA BKN025 OVC035
     FM131800 05007KT P6SM VCSH SCT040 OVC060=

USA.gov is the U.S. government's official web portal to all federal, state and local government web resources and services.